createdAt,value
2023-01-11T00:00:26.978Z,34.40
2023-01-11T00:03:04.486Z,34.40
2023-01-11T00:05:44.154Z,34.50
2023-01-11T00:08:19.262Z,34.40
2023-01-11T00:10:55.361Z,34.20
2023-01-11T00:13:31.617Z,34.40
2023-01-11T00:16:08.525Z,34.50
2023-01-11T00:18:43.512Z,34.60
2023-01-11T00:21:18.540Z,34.70
2023-01-11T00:23:53.408Z,34.80
2023-01-11T00:26:28.320Z,34.80
2023-01-11T00:29:03.346Z,34.80
2023-01-11T00:31:38.329Z,34.90
2023-01-11T00:34:13.293Z,35.00
2023-01-11T00:36:48.326Z,35.20
2023-01-11T00:39:23.201Z,35.20
2023-01-11T00:42:16.455Z,35.10
2023-01-11T00:45:09.995Z,35.30
2023-01-11T00:47:57.710Z,35.30
2023-01-11T00:50:36.657Z,35.40
2023-01-11T00:53:11.692Z,35.30
2023-01-11T00:55:46.587Z,35.30
2023-01-11T00:58:21.492Z,35.30
2023-01-11T01:00:56.402Z,35.30
2023-01-11T01:03:31.294Z,35.30
2023-01-11T01:06:06.276Z,35.40
2023-01-11T01:08:41.132Z,35.60
2023-01-11T01:11:16.144Z,35.40
2023-01-11T01:14:09.390Z,35.50
2023-01-11T01:16:46.225Z,35.60
2023-01-11T01:19:22.434Z,35.60
2023-01-11T01:21:59.124Z,35.80
2023-01-11T01:24:34.152Z,35.90
2023-01-11T01:27:09.104Z,36.10
2023-01-11T01:29:44.619Z,36.40
2023-01-11T01:32:19.513Z,36.40
2023-01-11T01:34:54.410Z,36.70
2023-01-11T01:37:29.290Z,36.70
2023-01-11T01:40:05.707Z,36.80
2023-01-11T01:42:40.585Z,36.90
2023-01-11T01:45:28.909Z,37.10
2023-01-11T01:48:06.786Z,37.30
2023-01-11T01:50:50.179Z,37.50
2023-01-11T01:53:37.401Z,37.80
2023-01-11T01:56:20.787Z,37.80
2023-01-11T01:59:01.142Z,37.90
2023-01-11T02:01:47.893Z,38.00
2023-01-11T02:04:29.305Z,38.10
2023-01-11T02:07:13.754Z,38.20
2023-01-11T02:09:57.421Z,38.40
2023-01-11T02:12:38.590Z,38.30
2023-01-11T02:15:17.095Z,38.40
2023-01-11T02:17:52.019Z,38.40
2023-01-11T02:20:29.316Z,38.50
2023-01-11T02:23:28.352Z,38.60
2023-01-11T02:26:47.798Z,38.90
2023-01-11T02:29:31.420Z,38.90
2023-01-11T02:32:26.304Z,39.00
2023-01-11T02:35:44.460Z,39.20
2023-01-11T02:38:34.022Z,39.30
2023-01-11T02:42:02.392Z,39.40
2023-01-11T02:45:02.175Z,39.60
2023-01-11T02:47:47.637Z,39.80
2023-01-11T02:50:36.039Z,39.90
2023-01-11T02:53:38.766Z,40.20
2023-01-11T02:56:21.825Z,40.10
2023-01-11T02:58:58.069Z,40.50
2023-01-11T03:01:33.003Z,40.80
2023-01-11T03:04:32.072Z,40.90
2023-01-11T03:07:12.900Z,41.20
2023-01-11T03:09:59.692Z,41.50
2023-01-11T03:13:19.031Z,41.80
2023-01-11T03:16:23.579Z,41.70
2023-01-11T03:19:14.465Z,41.50
2023-01-11T03:22:08.081Z,41.40
2023-01-11T03:24:55.595Z,41.40
2023-01-11T03:27:49.833Z,41.30
2023-01-11T03:30:48.760Z,41.30
2023-01-11T03:33:37.981Z,41.30
2023-01-11T03:36:42.413Z,41.30
2023-01-11T03:39:57.885Z,41.30
2023-01-11T03:42:35.443Z,41.30
2023-01-11T03:45:10.687Z,41.20
2023-01-11T03:47:45.795Z,41.00
2023-01-11T03:50:22.278Z,41.30
2023-01-11T03:52:59.560Z,41.30
2023-01-11T03:55:40.092Z,41.40
2023-01-11T03:58:15.493Z,40.60
2023-01-11T04:00:51.144Z,40.60
2023-01-11T04:03:28.208Z,40.70
2023-01-11T04:06:03.593Z,40.80
2023-01-11T04:08:38.581Z,40.70
2023-01-11T04:11:13.815Z,41.00
2023-01-11T04:13:48.743Z,41.10
2023-01-11T04:16:23.674Z,41.20
2023-01-11T04:18:58.609Z,41.70
2023-01-11T04:21:33.498Z,41.40
2023-01-11T04:24:08.806Z,41.30
2023-01-11T04:26:43.865Z,41.20
2023-01-11T04:29:18.812Z,41.10
2023-01-11T04:31:53.797Z,41.10
2023-01-11T04:34:28.748Z,41.00
2023-01-11T04:37:03.674Z,40.80
2023-01-11T04:39:39.082Z,41.00
2023-01-11T04:42:19.642Z,41.00
2023-01-11T04:44:54.653Z,41.00
2023-01-11T04:47:29.554Z,41.10
2023-01-11T04:50:05.597Z,41.20
2023-01-11T04:52:41.741Z,41.20
2023-01-11T04:55:17.136Z,41.40
2023-01-11T04:57:52.022Z,41.60
2023-01-11T05:00:26.905Z,41.90
2023-01-11T05:03:01.845Z,42.10
2023-01-11T05:05:36.763Z,43.30
2023-01-11T05:08:11.623Z,43.70
2023-01-11T05:10:57.028Z,43.80
2023-01-11T05:13:45.043Z,44.40
2023-01-11T05:16:20.815Z,44.80
2023-01-11T05:18:59.754Z,45.10
2023-01-11T05:21:39.271Z,45.50
2023-01-11T05:24:16.175Z,45.80
2023-01-11T05:26:52.450Z,45.80
2023-01-11T05:29:28.533Z,46.10
2023-01-11T05:32:03.526Z,46.40
2023-01-11T05:34:38.614Z,46.60
2023-01-11T05:37:13.541Z,46.80
2023-01-11T05:39:48.457Z,47.10
2023-01-11T05:42:23.446Z,47.60
2023-01-11T05:45:16.925Z,47.80
2023-01-11T05:47:53.768Z,48.20
2023-01-11T05:50:29.844Z,48.50
2023-01-11T05:53:07.418Z,48.90
2023-01-11T05:55:53.650Z,48.80
2023-01-11T05:58:28.724Z,48.80
2023-01-11T06:01:04.709Z,48.80
2023-01-11T06:03:39.657Z,48.80
2023-01-11T06:06:16.508Z,48.80
2023-01-11T06:08:51.458Z,49.20
2023-01-11T06:11:26.442Z,49.30
2023-01-11T06:14:01.533Z,49.40
2023-01-11T06:16:36.476Z,49.40
2023-01-11T06:19:11.536Z,49.50
2023-01-11T06:21:46.622Z,49.60
2023-01-11T06:24:21.561Z,49.80
2023-01-11T06:26:56.465Z,49.90
2023-01-11T06:29:31.423Z,49.80
2023-01-11T06:32:06.523Z,49.80
2023-01-11T06:34:41.522Z,49.80
2023-01-11T06:37:16.505Z,49.90
2023-01-11T06:39:51.489Z,50.00
2023-01-11T06:42:26.500Z,50.10
2023-01-11T06:45:01.538Z,50.50
2023-01-11T06:47:36.611Z,50.70
2023-01-11T06:50:11.840Z,51.10
2023-01-11T06:52:54.134Z,51.60
2023-01-11T06:55:29.770Z,51.70
2023-01-11T06:58:04.695Z,51.80
2023-01-11T07:00:39.754Z,51.70
2023-01-11T07:03:14.984Z,51.40
2023-01-11T07:05:50.267Z,51.70
2023-01-11T07:08:26.741Z,51.70
2023-01-11T07:11:01.806Z,50.50
2023-01-11T07:13:36.727Z,51.40
2023-01-11T07:16:11.718Z,50.80
2023-01-11T07:18:46.925Z,51.20
2023-01-11T07:21:21.891Z,51.30
2023-01-11T07:23:56.903Z,51.30
2023-01-11T07:26:33.105Z,51.40
2023-01-11T07:29:11.405Z,51.40
2023-01-11T07:31:46.613Z,50.00
2023-01-11T07:34:21.507Z,49.80
2023-01-11T07:36:56.623Z,49.40
2023-01-11T07:39:42.943Z,49.20
2023-01-11T07:42:36.875Z,48.90
2023-01-11T07:45:11.893Z,48.70
2023-01-11T07:47:51.529Z,48.50
2023-01-11T07:50:26.487Z,48.10
2023-01-11T07:53:01.540Z,47.90
2023-01-11T07:55:37.818Z,47.70
2023-01-11T07:58:14.097Z,47.00
2023-01-11T08:00:49.070Z,46.60
2023-01-11T08:03:24.136Z,46.40
2023-01-11T08:08:34.394Z,45.60
2023-01-11T08:11:28.187Z,45.70
2023-01-11T08:14:21.641Z,45.50
2023-01-11T08:16:56.631Z,44.70
2023-01-11T08:19:31.843Z,44.40
2023-01-11T08:22:07.691Z,44.00
2023-01-11T08:24:42.683Z,43.90
2023-01-11T08:27:17.604Z,43.70
2023-01-11T08:29:52.569Z,43.50
2023-01-11T08:32:30.373Z,43.20
2023-01-11T08:35:06.065Z,43.20
2023-01-11T08:37:41.028Z,43.10
2023-01-11T08:40:15.988Z,43.00
2023-01-11T08:42:57.326Z,42.70
2023-01-11T08:45:34.104Z,42.60
2023-01-11T08:48:09.097Z,42.60
2023-01-11T08:50:45.016Z,42.30
2023-01-11T08:53:20.890Z,42.30
2023-01-11T08:55:55.880Z,42.40
2023-01-11T08:58:30.821Z,42.20
2023-01-11T09:01:09.093Z,42.10
2023-01-11T09:03:44.107Z,42.10
2023-01-11T09:06:19.430Z,41.60
2023-01-11T09:08:54.828Z,42.00
2023-01-11T09:11:48.210Z,41.90
2023-01-11T09:14:27.730Z,41.90
2023-01-11T09:17:02.768Z,42.10
2023-01-11T09:19:37.767Z,41.90
2023-01-11T09:22:12.752Z,42.00
2023-01-11T09:24:47.727Z,42.10
2023-01-11T09:27:22.761Z,42.00
2023-01-11T09:29:57.719Z,42.20
2023-01-11T09:32:32.711Z,42.10
2023-01-11T09:35:09.045Z,42.10
2023-01-11T09:37:52.217Z,41.80
2023-01-11T09:41:08.451Z,41.70
2023-01-11T09:43:59.596Z,41.60
2023-01-11T09:46:38.978Z,41.60
2023-01-11T09:49:28.430Z,41.50
2023-01-11T09:52:28.877Z,41.40
2023-01-11T09:55:05.041Z,41.10
2023-01-11T09:58:28.500Z,41.00
2023-01-11T10:01:15.675Z,41.00
2023-01-11T10:04:32.863Z,40.70
2023-01-11T10:18:27.583Z,40.50
2023-01-11T10:18:28.171Z,40.40
2023-01-11T10:20:56.196Z,40.60
2023-01-11T10:23:49.716Z,40.50
2023-01-11T10:26:29.211Z,40.30
2023-01-11T10:29:46.178Z,40.30
2023-01-11T10:32:53.272Z,40.20
2023-01-11T10:36:10.588Z,40.10
2023-01-11T10:39:46.534Z,40.40
2023-01-11T10:42:28.170Z,39.90
2023-01-11T10:45:13.588Z,39.90
2023-01-11T10:48:01.590Z,40.10
2023-01-11T10:50:38.415Z,40.10
2023-01-11T10:53:27.243Z,40.00
2023-01-11T10:57:02.455Z,40.20
2023-01-11T11:00:12.843Z,40.30
2023-01-11T11:03:26.399Z,40.50
2023-01-11T11:06:17.281Z,40.60
2023-01-11T11:09:22.865Z,40.40
2023-01-11T11:12:14.950Z,40.50
2023-01-11T11:15:02.535Z,40.50
2023-01-11T11:17:40.444Z,40.80
2023-01-11T11:20:24.274Z,41.20
2023-01-11T11:22:59.863Z,41.20
2023-01-11T11:25:43.298Z,41.20
2023-01-11T11:28:32.233Z,41.20
2023-01-11T11:31:08.280Z,41.40
2023-01-11T11:33:46.652Z,41.60
2023-01-11T11:36:22.143Z,41.60
2023-01-11T11:39:25.669Z,41.80
2023-01-11T11:42:15.609Z,40.80
2023-01-11T11:45:11.696Z,40.70
2023-01-11T11:48:02.117Z,40.80
2023-01-11T11:50:44.608Z,40.90
2023-01-11T11:53:39.213Z,40.90
2023-01-11T11:56:24.209Z,41.20
2023-01-11T11:59:06.326Z,41.40
2023-01-11T12:01:47.368Z,41.80
2023-01-11T12:04:47.610Z,42.50
2023-01-11T12:07:27.570Z,42.70
2023-01-11T12:10:13.302Z,42.30
2023-01-11T12:13:03.357Z,42.70
2023-01-11T12:15:38.414Z,43.10
2023-01-11T12:18:46.644Z,44.30
2023-01-11T12:21:25.563Z,44.90
2023-01-11T12:24:19.679Z,45.70
2023-01-11T12:27:09.455Z,45.50
2023-01-11T12:29:53.377Z,45.70
2023-01-11T12:32:48.748Z,46.30
2023-01-11T12:36:03.165Z,46.40
2023-01-11T12:39:10.580Z,46.10
2023-01-11T12:42:38.197Z,48.00
2023-01-11T12:45:21.940Z,48.80
2023-01-11T12:48:49.779Z,49.60
2023-01-11T12:51:44.392Z,49.40
2023-01-11T12:54:31.175Z,49.60
2023-01-11T12:57:51.085Z,49.00
2023-01-11T13:00:43.859Z,49.30
2023-01-11T13:03:53.117Z,49.40
2023-01-11T13:07:11.254Z,50.50
2023-01-11T13:10:13.644Z,53.40
2023-01-11T13:13:01.823Z,53.40
2023-01-11T13:16:17.996Z,54.50
2023-01-11T13:19:20.020Z,54.80
2023-01-11T13:21:56.918Z,54.00
2023-01-11T13:24:32.998Z,55.00
2023-01-11T13:27:15.277Z,56.30
2023-01-11T13:30:02.128Z,57.50
2023-01-11T13:32:40.175Z,58.20
2023-01-11T13:35:30.274Z,57.10
2023-01-11T13:38:34.490Z,57.70
2023-01-11T13:41:22.046Z,56.60
2023-01-11T13:44:06.000Z,56.90
2023-01-11T13:46:52.393Z,56.70
2023-01-11T13:50:03.994Z,55.60
2023-01-11T13:53:03.301Z,55.50
2023-01-11T13:56:06.316Z,55.60
2023-01-11T13:58:58.723Z,55.60
2023-01-11T14:02:03.117Z,57.00
2023-01-11T14:05:04.221Z,57.90
2023-01-11T14:08:24.407Z,58.80
2023-01-11T14:11:03.323Z,60.60
2023-01-11T14:14:05.967Z,62.50
2023-01-11T14:17:07.805Z,62.60
2023-01-11T14:20:28.865Z,64.60
2023-01-11T14:23:23.828Z,66.50
2023-01-11T14:26:49.841Z,66.40
2023-01-11T14:30:00.059Z,64.60
2023-01-11T14:32:56.411Z,62.30
2023-01-11T14:36:08.720Z,63.80
2023-01-11T14:39:09.212Z,65.40
2023-01-11T14:42:19.010Z,65.50
2023-01-11T14:45:41.194Z,65.90
2023-01-11T14:48:48.209Z,62.30
2023-01-11T14:51:53.086Z,60.50
2023-01-11T14:54:31.621Z,59.80
2023-01-11T14:57:09.180Z,57.60
2023-01-11T14:59:44.310Z,56.80
2023-01-11T15:02:27.133Z,57.20
2023-01-11T15:05:07.213Z,57.80
2023-01-11T15:07:42.803Z,56.90
2023-01-11T15:10:55.898Z,56.90
2023-01-11T15:13:46.451Z,55.30
2023-01-11T15:16:42.605Z,52.40
2023-01-11T15:19:33.862Z,51.10
2023-01-11T15:22:28.549Z,50.60
2023-01-11T15:25:23.567Z,50.50
2023-01-11T15:28:05.136Z,50.50
2023-01-11T15:30:40.243Z,51.00
2023-01-11T15:33:18.091Z,50.40
2023-01-11T15:35:55.753Z,51.60
2023-01-11T15:39:16.761Z,51.60
2023-01-11T15:42:17.266Z,51.10
2023-01-11T15:44:58.147Z,52.50
2023-01-11T15:48:06.038Z,52.30
2023-01-11T15:51:05.407Z,51.50
2023-01-11T15:53:56.503Z,51.40
2023-01-11T15:57:13.692Z,51.00
2023-01-11T16:00:36.439Z,49.90
2023-01-11T16:03:41.796Z,47.90
2023-01-11T16:06:50.660Z,47.90
2023-01-11T16:09:56.301Z,48.90
2023-01-11T16:13:01.860Z,50.60
2023-01-11T16:16:14.495Z,49.10
2023-01-11T16:19:20.576Z,49.90
2023-01-11T16:21:59.196Z,49.50
2023-01-11T16:24:45.029Z,49.70
2023-01-11T16:27:27.485Z,48.50
2023-01-11T16:30:02.860Z,48.20
2023-01-11T16:32:37.887Z,48.40
2023-01-11T16:35:25.411Z,47.60
2023-01-11T16:38:02.596Z,47.30
2023-01-11T16:40:41.938Z,46.30
2023-01-11T16:43:29.693Z,45.10
2023-01-11T16:46:04.812Z,46.60
2023-01-11T16:48:40.047Z,45.60
2023-01-11T16:51:17.020Z,45.50
2023-01-11T16:53:59.380Z,45.40
2023-01-11T16:56:35.847Z,44.50
2023-01-11T16:59:13.660Z,43.60
2023-01-11T17:01:59.283Z,43.20
2023-01-11T17:04:49.526Z,43.00
2023-01-11T17:07:28.690Z,42.80
2023-01-11T17:10:24.953Z,43.10
2023-01-11T17:13:55.097Z,42.80
2023-01-11T17:16:39.734Z,43.30
2023-01-11T17:19:22.016Z,44.30
2023-01-11T17:22:06.872Z,45.10
2023-01-11T17:24:49.082Z,44.40
2023-01-11T17:27:42.533Z,44.50
2023-01-11T17:30:24.235Z,45.10
2023-01-11T17:32:59.706Z,44.70
2023-01-11T17:35:37.423Z,44.20
2023-01-11T17:38:24.597Z,44.10
2023-01-11T17:41:01.305Z,44.20
2023-01-11T17:43:55.834Z,43.80
2023-01-11T17:46:30.879Z,43.90
2023-01-11T17:49:26.069Z,44.60
2023-01-11T17:52:10.241Z,45.40
2023-01-11T17:54:45.445Z,45.90
2023-01-11T17:57:20.307Z,48.30
2023-01-11T18:00:23.802Z,48.70
2023-01-11T18:03:00.093Z,50.50
2023-01-11T18:05:35.347Z,57.80
2023-01-11T18:08:28.565Z,68.70
2023-01-11T18:11:03.633Z,74.00
2023-01-11T18:13:38.758Z,77.00
2023-01-11T18:16:19.624Z,79.40
2023-01-11T18:18:56.273Z,81.70
2023-01-11T18:21:41.045Z,83.20
2023-01-11T18:24:26.560Z,84.60
2023-01-11T18:27:17.283Z,86.00
2023-01-11T18:29:54.481Z,87.40
2023-01-11T18:32:36.272Z,87.50
2023-01-11T18:35:19.129Z,88.10
2023-01-11T18:37:54.593Z,88.60
2023-01-11T18:40:30.942Z,89.20
2023-01-11T18:43:05.932Z,89.20
2023-01-11T18:45:44.879Z,89.80
2023-01-11T18:48:20.682Z,90.00
2023-01-11T18:50:55.904Z,89.60
2023-01-11T18:53:30.856Z,89.80
2023-01-11T18:56:06.084Z,90.00
2023-01-11T18:58:41.220Z,90.10
2023-01-11T19:01:16.612Z,90.00
2023-01-11T19:03:51.629Z,90.20
2023-01-11T19:06:28.457Z,90.00
2023-01-11T19:09:06.422Z,90.00
2023-01-11T19:11:41.354Z,90.10
2023-01-11T19:14:16.277Z,90.20
2023-01-11T19:16:51.301Z,90.30
2023-01-11T19:19:26.375Z,90.40
2023-01-11T19:22:01.331Z,90.40
2023-01-11T19:24:36.315Z,90.30
2023-01-11T19:27:13.529Z,90.20
2023-01-11T19:29:48.694Z,90.10
2023-01-11T19:32:25.431Z,90.00
2023-01-11T19:35:00.511Z,90.00
2023-01-11T19:37:37.893Z,90.10
2023-01-11T19:40:13.753Z,90.10
2023-01-11T19:42:52.206Z,90.10
2023-01-11T19:45:27.128Z,89.50
2023-01-11T19:48:02.137Z,89.40
2023-01-11T19:50:37.430Z,89.60
2023-01-11T19:53:13.327Z,89.70
2023-01-11T19:55:48.309Z,89.70
2023-01-11T19:58:23.759Z,89.70
2023-01-11T20:00:58.997Z,89.60
2023-01-11T20:03:33.931Z,89.70
2023-01-11T20:06:09.085Z,89.70
2023-01-11T20:08:44.036Z,89.60
2023-01-11T20:11:19.705Z,89.60
2023-01-11T20:13:54.638Z,88.90
2023-01-11T20:16:29.564Z,88.70
2023-01-11T20:19:04.529Z,88.90
2023-01-11T20:21:39.682Z,88.20
2023-01-11T20:24:15.146Z,88.10
2023-01-11T20:26:50.102Z,88.40
2023-01-11T20:29:25.013Z,88.90
2023-01-11T20:32:15.452Z,89.00
2023-01-11T20:34:54.807Z,88.90
2023-01-11T20:37:29.797Z,89.10
2023-01-11T20:40:05.515Z,89.10
2023-01-11T20:42:40.420Z,89.40
2023-01-11T20:45:16.163Z,88.70
2023-01-11T20:47:51.045Z,88.70
2023-01-11T20:50:26.126Z,88.60
2023-01-11T20:53:01.111Z,88.30
2023-01-11T20:55:37.345Z,88.00
2023-01-11T20:58:13.197Z,87.80
2023-01-11T21:00:48.195Z,87.10
2023-01-11T21:03:24.856Z,87.30
2023-01-11T21:06:03.806Z,87.30
2023-01-11T21:08:39.228Z,87.70
2023-01-11T21:11:16.033Z,87.70
2023-01-11T21:13:55.978Z,87.60
2023-01-11T21:16:31.780Z,87.50
2023-01-11T21:19:07.743Z,87.50
2023-01-11T21:21:43.654Z,87.00
2023-01-11T21:24:18.617Z,87.30
2023-01-11T21:26:53.576Z,87.20
2023-01-11T21:29:28.565Z,87.10
2023-01-11T21:32:03.659Z,87.30
2023-01-11T21:34:38.586Z,87.60
2023-01-11T21:37:13.516Z,87.70
2023-01-11T21:39:48.386Z,87.50
2023-01-11T21:42:23.461Z,87.40
2023-01-11T21:44:58.589Z,87.60
2023-01-11T21:47:33.453Z,87.50
2023-01-11T21:50:09.208Z,87.10
2023-01-11T21:52:44.267Z,87.10
2023-01-11T21:55:19.438Z,87.20
2023-01-11T21:57:54.346Z,87.30
2023-01-11T22:00:30.953Z,87.20
2023-01-11T22:03:05.870Z,88.40
2023-01-11T22:05:40.760Z,87.20
2023-01-11T22:08:15.701Z,87.20
2023-01-11T22:11:02.018Z,87.10
2023-01-11T22:13:37.126Z,87.00
2023-01-11T22:16:17.875Z,86.50
2023-01-11T22:18:52.824Z,86.80
2023-01-11T22:21:28.410Z,86.80
2023-01-11T22:24:05.847Z,86.80
2023-01-11T22:26:41.201Z,86.60
2023-01-11T22:29:16.230Z,86.60
2023-01-11T22:32:00.995Z,86.40
2023-01-11T22:34:36.049Z,86.90
2023-01-11T22:37:11.166Z,87.00
2023-01-11T22:39:46.096Z,87.30
2023-01-11T22:42:20.984Z,87.20
2023-01-11T22:44:55.911Z,87.00
2023-01-11T22:47:31.155Z,86.90
2023-01-11T22:50:06.535Z,86.70
2023-01-11T22:52:41.621Z,86.50
2023-01-11T22:55:16.568Z,86.80
2023-01-11T22:57:51.494Z,86.50
2023-01-11T23:00:26.456Z,86.50
2023-01-11T23:03:01.391Z,87.00
2023-01-11T23:05:36.479Z,86.50
2023-01-11T23:08:13.078Z,86.20
2023-01-11T23:10:47.974Z,85.80
2023-01-11T23:13:41.124Z,85.30
2023-01-11T23:16:19.921Z,85.40
2023-01-11T23:18:55.032Z,85.60
2023-01-11T23:21:30.103Z,85.30
2023-01-11T23:24:05.680Z,85.40
2023-01-11T23:26:40.874Z,85.40
2023-01-11T23:29:15.968Z,84.90
2023-01-11T23:31:51.018Z,84.90
2023-01-11T23:34:26.017Z,85.20
2023-01-11T23:37:00.923Z,85.40
2023-01-11T23:39:35.831Z,85.60
2023-01-11T23:42:27.217Z,85.60
2023-01-11T23:45:02.257Z,85.70
2023-01-11T23:47:37.132Z,86.00
2023-01-11T23:50:12.058Z,85.90
2023-01-11T23:52:46.972Z,86.30
2023-01-11T23:55:22.195Z,86.10
2023-01-11T23:58:09.220Z,84.80
